sensor_id;sensor_type;location;lat;lon;timestamp;P1;durP1;ratioP1;P2;durP2;ratioP2
10727;SDS011;5415;59.322;18.246;2022-07-23T00:02:00;20.90;;;10.10;;
10727;SDS011;5415;59.322;18.246;2022-07-23T00:04:27;19.97;;;9.50;;
10727;SDS011;5415;59.322;18.246;2022-07-23T00:06:54;22.20;;;10.17;;
10727;SDS011;5415;59.322;18.246;2022-07-23T00:09:21;18.43;;;9.40;;
10727;SDS011;5415;59.322;18.246;2022-07-23T00:11:48;15.83;;;9.43;;
10727;SDS011;5415;59.322;18.246;2022-07-23T00:14:16;25.37;;;10.30;;
10727;SDS011;5415;59.322;18.246;2022-07-23T00:16:43;23.17;;;10.63;;
10727;SDS011;5415;59.322;18.246;2022-07-23T00:19:12;18.80;;;9.73;;
10727;SDS011;5415;59.322;18.246;2022-07-23T00:21:39;23.83;;;10.37;;
10727;SDS011;5415;59.322;18.246;2022-07-23T00:24:08;22.80;;;10.30;;
10727;SDS011;5415;59.322;18.246;2022-07-23T00:26:36;25.40;;;9.80;;
10727;SDS011;5415;59.322;18.246;2022-07-23T00:29:03;21.70;;;10.77;;
10727;SDS011;5415;59.322;18.246;2022-07-23T00:31:30;20.67;;;10.50;;
10727;SDS011;5415;59.322;18.246;2022-07-23T00:33:57;21.47;;;10.37;;
10727;SDS011;5415;59.322;18.246;2022-07-23T00:36:28;18.77;;;10.33;;
10727;SDS011;5415;59.322;18.246;2022-07-23T00:38:56;24.00;;;10.73;;
10727;SDS011;5415;59.322;18.246;2022-07-23T00:41:23;20.27;;;10.13;;
10727;SDS011;5415;59.322;18.246;2022-07-23T00:43:51;22.10;;;9.90;;
10727;SDS011;5415;59.322;18.246;2022-07-23T00:46:18;21.93;;;10.23;;
10727;SDS011;5415;59.322;18.246;2022-07-23T00:48:46;25.07;;;10.77;;
10727;SDS011;5415;59.322;18.246;2022-07-23T00:51:14;22.87;;;10.67;;
10727;SDS011;5415;59.322;18.246;2022-07-23T00:53:43;31.10;;;11.27;;
10727;SDS011;5415;59.322;18.246;2022-07-23T00:56:11;24.67;;;10.33;;
10727;SDS011;5415;59.322;18.246;2022-07-23T00:58:39;26.40;;;10.83;;
10727;SDS011;5415;59.322;18.246;2022-07-23T01:01:10;26.50;;;10.63;;
10727;SDS011;5415;59.322;18.246;2022-07-23T01:03:38;30.87;;;10.30;;
10727;SDS011;5415;59.322;18.246;2022-07-23T01:06:07;29.40;;;10.30;;
10727;SDS011;5415;59.322;18.246;2022-07-23T01:08:34;34.60;;;11.93;;
10727;SDS011;5415;59.322;18.246;2022-07-23T01:11:03;31.03;;;10.80;;
10727;SDS011;5415;59.322;18.246;2022-07-23T01:13:31;34.67;;;11.93;;
10727;SDS011;5415;59.322;18.246;2022-07-23T01:16:00;36.20;;;11.60;;
10727;SDS011;5415;59.322;18.246;2022-07-23T01:18:27;35.20;;;11.57;;
10727;SDS011;5415;59.322;18.246;2022-07-23T01:20:54;35.03;;;13.00;;
10727;SDS011;5415;59.322;18.246;2022-07-23T01:23:23;36.27;;;13.43;;
10727;SDS011;5415;59.322;18.246;2022-07-23T01:25:52;36.53;;;12.77;;
10727;SDS011;5415;59.322;18.246;2022-07-23T01:28:20;31.60;;;13.43;;
10727;SDS011;5415;59.322;18.246;2022-07-23T01:30:48;32.00;;;12.07;;
10727;SDS011;5415;59.322;18.246;2022-07-23T01:33:16;33.00;;;12.40;;
10727;SDS011;5415;59.322;18.246;2022-07-23T01:35:43;36.93;;;13.93;;
10727;SDS011;5415;59.322;18.246;2022-07-23T01:38:10;41.83;;;13.90;;
10727;SDS011;5415;59.322;18.246;2022-07-23T01:40:40;47.90;;;14.83;;
10727;SDS011;5415;59.322;18.246;2022-07-23T01:43:07;48.03;;;15.23;;
10727;SDS011;5415;59.322;18.246;2022-07-23T01:45:35;42.33;;;14.27;;
10727;SDS011;5415;59.322;18.246;2022-07-23T01:48:02;41.53;;;13.07;;
10727;SDS011;5415;59.322;18.246;2022-07-23T01:50:30;39.33;;;13.23;;
10727;SDS011;5415;59.322;18.246;2022-07-23T01:52:57;35.23;;;13.33;;
10727;SDS011;5415;59.322;18.246;2022-07-23T01:55:25;33.87;;;12.73;;
10727;SDS011;5415;59.322;18.246;2022-07-23T01:57:53;37.10;;;13.03;;
10727;SDS011;5415;59.322;18.246;2022-07-23T02:00:20;35.87;;;13.10;;
10727;SDS011;5415;59.322;18.246;2022-07-23T02:02:48;39.43;;;12.87;;
10727;SDS011;5415;59.322;18.246;2022-07-23T02:05:15;38.33;;;11.87;;
10727;SDS011;5415;59.322;18.246;2022-07-23T02:07:42;27.67;;;11.07;;
10727;SDS011;5415;59.322;18.246;2022-07-23T02:10:10;27.83;;;10.10;;
10727;SDS011;5415;59.322;18.246;2022-07-23T02:12:37;26.57;;;10.27;;
10727;SDS011;5415;59.322;18.246;2022-07-23T02:15:08;30.17;;;10.37;;
10727;SDS011;5415;59.322;18.246;2022-07-23T02:17:36;21.60;;;9.43;;
10727;SDS011;5415;59.322;18.246;2022-07-23T02:20:04;19.17;;;9.20;;
10727;SDS011;5415;59.322;18.246;2022-07-23T02:22:32;17.80;;;8.00;;
10727;SDS011;5415;59.322;18.246;2022-07-23T02:25:01;17.70;;;8.33;;
10727;SDS011;5415;59.322;18.246;2022-07-23T02:27:28;17.10;;;7.93;;
10727;SDS011;5415;59.322;18.246;2022-07-23T02:29:55;15.53;;;7.73;;
10727;SDS011;5415;59.322;18.246;2022-07-23T02:32:24;16.27;;;7.00;;
10727;SDS011;5415;59.322;18.246;2022-07-23T02:34:51;15.80;;;7.27;;
10727;SDS011;5415;59.322;18.246;2022-07-23T02:37:18;16.73;;;7.20;;
10727;SDS011;5415;59.322;18.246;2022-07-23T02:39:46;16.60;;;8.00;;
10727;SDS011;5415;59.322;18.246;2022-07-23T02:42:13;14.50;;;7.17;;
10727;SDS011;5415;59.322;18.246;2022-07-23T02:44:41;13.57;;;6.90;;
10727;SDS011;5415;59.322;18.246;2022-07-23T02:47:08;18.73;;;6.77;;
10727;SDS011;5415;59.322;18.246;2022-07-23T02:49:37;14.47;;;6.40;;
10727;SDS011;5415;59.322;18.246;2022-07-23T02:52:05;13.77;;;6.00;;
10727;SDS011;5415;59.322;18.246;2022-07-23T02:54:33;12.23;;;6.17;;
10727;SDS011;5415;59.322;18.246;2022-07-23T02:57:00;11.13;;;5.53;;
10727;SDS011;5415;59.322;18.246;2022-07-23T02:59:27;10.67;;;5.57;;
10727;SDS011;5415;59.322;18.246;2022-07-23T03:01:54;12.13;;;5.93;;
10727;SDS011;5415;59.322;18.246;2022-07-23T03:04:21;11.63;;;4.73;;
10727;SDS011;5415;59.322;18.246;2022-07-23T03:06:50;11.20;;;5.80;;
10727;SDS011;5415;59.322;18.246;2022-07-23T03:09:19;9.87;;;5.17;;
10727;SDS011;5415;59.322;18.246;2022-07-23T03:11:46;10.03;;;5.80;;
10727;SDS011;5415;59.322;18.246;2022-07-23T03:14:13;10.53;;;4.90;;
10727;SDS011;5415;59.322;18.246;2022-07-23T03:16:41;12.67;;;5.27;;
10727;SDS011;5415;59.322;18.246;2022-07-23T03:19:09;9.80;;;4.90;;
10727;SDS011;5415;59.322;18.246;2022-07-23T03:21:36;9.03;;;4.80;;
10727;SDS011;5415;59.322;18.246;2022-07-23T03:24:07;9.33;;;4.20;;
10727;SDS011;5415;59.322;18.246;2022-07-23T03:26:35;6.00;;;3.70;;
10727;SDS011;5415;59.322;18.246;2022-07-23T03:29:03;8.47;;;4.30;;
10727;SDS011;5415;59.322;18.246;2022-07-23T03:31:30;6.40;;;3.80;;
10727;SDS011;5415;59.322;18.246;2022-07-23T03:33:58;5.30;;;2.97;;
10727;SDS011;5415;59.322;18.246;2022-07-23T03:36:25;6.17;;;3.20;;
10727;SDS011;5415;59.322;18.246;2022-07-23T03:38:53;6.03;;;3.20;;
10727;SDS011;5415;59.322;18.246;2022-07-23T03:41:24;5.07;;;2.97;;
10727;SDS011;5415;59.322;18.246;2022-07-23T03:43:51;4.90;;;3.23;;
10727;SDS011;5415;59.322;18.246;2022-07-23T03:46:20;4.23;;;2.70;;
10727;SDS011;5415;59.322;18.246;2022-07-23T03:48:49;4.77;;;2.80;;
10727;SDS011;5415;59.322;18.246;2022-07-23T03:51:17;6.13;;;2.87;;
10727;SDS011;5415;59.322;18.246;2022-07-23T03:53:44;4.13;;;2.87;;
10727;SDS011;5415;59.322;18.246;2022-07-23T03:56:14;5.70;;;2.80;;
10727;SDS011;5415;59.322;18.246;2022-07-23T03:58:44;3.83;;;2.37;;
10727;SDS011;5415;59.322;18.246;2022-07-23T04:01:11;4.80;;;2.73;;
10727;SDS011;5415;59.322;18.246;2022-07-23T04:03:39;5.20;;;2.97;;
10727;SDS011;5415;59.322;18.246;2022-07-23T04:06:07;4.50;;;2.70;;
10727;SDS011;5415;59.322;18.246;2022-07-23T04:08:34;3.90;;;2.53;;
10727;SDS011;5415;59.322;18.246;2022-07-23T04:11:01;3.70;;;2.50;;
10727;SDS011;5415;59.322;18.246;2022-07-23T04:13:31;4.33;;;2.20;;
10727;SDS011;5415;59.322;18.246;2022-07-23T04:16:01;5.00;;;2.30;;
10727;SDS011;5415;59.322;18.246;2022-07-23T04:18:32;2.90;;;2.03;;
10727;SDS011;5415;59.322;18.246;2022-07-23T04:20:59;4.83;;;2.50;;
10727;SDS011;5415;59.322;18.246;2022-07-23T04:23:26;2.83;;;2.00;;
10727;SDS011;5415;59.322;18.246;2022-07-23T04:25:54;3.60;;;2.10;;
10727;SDS011;5415;59.322;18.246;2022-07-23T04:28:21;4.00;;;2.53;;
10727;SDS011;5415;59.322;18.246;2022-07-23T04:30:50;4.07;;;2.13;;
10727;SDS011;5415;59.322;18.246;2022-07-23T04:33:20;3.03;;;1.83;;
10727;SDS011;5415;59.322;18.246;2022-07-23T04:35:48;3.30;;;2.10;;
10727;SDS011;5415;59.322;18.246;2022-07-23T04:38:17;3.80;;;2.33;;
10727;SDS011;5415;59.322;18.246;2022-07-23T04:40:45;3.80;;;2.20;;
10727;SDS011;5415;59.322;18.246;2022-07-23T04:43:12;2.30;;;1.97;;
10727;SDS011;5415;59.322;18.246;2022-07-23T04:45:39;5.63;;;1.97;;
10727;SDS011;5415;59.322;18.246;2022-07-23T04:48:06;4.83;;;1.97;;
10727;SDS011;5415;59.322;18.246;2022-07-23T04:50:35;2.47;;;1.77;;
10727;SDS011;5415;59.322;18.246;2022-07-23T04:53:02;4.03;;;2.03;;
10727;SDS011;5415;59.322;18.246;2022-07-23T04:55:31;2.13;;;1.60;;
10727;SDS011;5415;59.322;18.246;2022-07-23T04:57:58;3.40;;;1.87;;
10727;SDS011;5415;59.322;18.246;2022-07-23T05:00:26;3.13;;;2.00;;
10727;SDS011;5415;59.322;18.246;2022-07-23T05:02:53;5.17;;;1.50;;
10727;SDS011;5415;59.322;18.246;2022-07-23T05:05:22;3.23;;;1.80;;
10727;SDS011;5415;59.322;18.246;2022-07-23T05:07:51;2.43;;;1.93;;
10727;SDS011;5415;59.322;18.246;2022-07-23T05:10:18;2.07;;;1.70;;
10727;SDS011;5415;59.322;18.246;2022-07-23T05:12:46;2.90;;;1.67;;
10727;SDS011;5415;59.322;18.246;2022-07-23T05:15:13;2.13;;;1.63;;
10727;SDS011;5415;59.322;18.246;2022-07-23T05:17:40;3.17;;;2.03;;
10727;SDS011;5415;59.322;18.246;2022-07-23T05:20:08;1.97;;;1.60;;
10727;SDS011;5415;59.322;18.246;2022-07-23T05:22:36;2.13;;;1.80;;
10727;SDS011;5415;59.322;18.246;2022-07-23T05:25:05;4.87;;;1.70;;
10727;SDS011;5415;59.322;18.246;2022-07-23T05:27:33;2.87;;;1.90;;
10727;SDS011;5415;59.322;18.246;2022-07-23T05:30:00;3.50;;;2.00;;
10727;SDS011;5415;59.322;18.246;2022-07-23T05:32:27;2.43;;;1.93;;
10727;SDS011;5415;59.322;18.246;2022-07-23T05:34:54;3.23;;;1.67;;
10727;SDS011;5415;59.322;18.246;2022-07-23T05:37:22;3.33;;;1.90;;
10727;SDS011;5415;59.322;18.246;2022-07-23T05:39:49;4.47;;;1.87;;
10727;SDS011;5415;59.322;18.246;2022-07-23T05:42:18;5.93;;;2.20;;
10727;SDS011;5415;59.322;18.246;2022-07-23T05:44:45;3.67;;;2.00;;
10727;SDS011;5415;59.322;18.246;2022-07-23T05:47:13;4.80;;;2.40;;
10727;SDS011;5415;59.322;18.246;2022-07-23T05:49:40;5.07;;;2.17;;
10727;SDS011;5415;59.322;18.246;2022-07-23T05:52:07;2.43;;;2.20;;
10727;SDS011;5415;59.322;18.246;2022-07-23T05:54:34;3.03;;;2.10;;
10727;SDS011;5415;59.322;18.246;2022-07-23T05:57:03;3.33;;;2.10;;
10727;SDS011;5415;59.322;18.246;2022-07-23T05:59:32;3.90;;;1.83;;
10727;SDS011;5415;59.322;18.246;2022-07-23T06:01:59;5.23;;;2.03;;
10727;SDS011;5415;59.322;18.246;2022-07-23T06:04:27;2.67;;;1.90;;
10727;SDS011;5415;59.322;18.246;2022-07-23T06:06:55;4.50;;;2.03;;
10727;SDS011;5415;59.322;18.246;2022-07-23T06:09:22;2.83;;;1.93;;
10727;SDS011;5415;59.322;18.246;2022-07-23T06:11:50;2.73;;;1.80;;
10727;SDS011;5415;59.322;18.246;2022-07-23T06:14:18;2.63;;;1.70;;
10727;SDS011;5415;59.322;18.246;2022-07-23T06:16:47;2.33;;;1.83;;
10727;SDS011;5415;59.322;18.246;2022-07-23T06:19:15;2.73;;;2.00;;
10727;SDS011;5415;59.322;18.246;2022-07-23T06:21:42;2.53;;;2.00;;
10727;SDS011;5415;59.322;18.246;2022-07-23T06:24:11;2.57;;;2.00;;
10727;SDS011;5415;59.322;18.246;2022-07-23T06:26:40;3.10;;;2.00;;
10727;SDS011;5415;59.322;18.246;2022-07-23T06:29:07;2.03;;;1.80;;
10727;SDS011;5415;59.322;18.246;2022-07-23T06:31:36;3.23;;;2.00;;
10727;SDS011;5415;59.322;18.246;2022-07-23T06:34:08;2.40;;;2.10;;
10727;SDS011;5415;59.322;18.246;2022-07-23T06:36:35;4.23;;;2.43;;
10727;SDS011;5415;59.322;18.246;2022-07-23T06:39:02;1.73;;;1.50;;
10727;SDS011;5415;59.322;18.246;2022-07-23T06:41:30;1.60;;;1.50;;
10727;SDS011;5415;59.322;18.246;2022-07-23T06:43:58;1.80;;;1.53;;
10727;SDS011;5415;59.322;18.246;2022-07-23T06:46:26;2.23;;;1.53;;
10727;SDS011;5415;59.322;18.246;2022-07-23T06:48:53;1.60;;;1.50;;
10727;SDS011;5415;59.322;18.246;2022-07-23T06:51:22;1.50;;;1.40;;
10727;SDS011;5415;59.322;18.246;2022-07-23T06:53:49;2.57;;;1.40;;
10727;SDS011;5415;59.322;18.246;2022-07-23T06:56:16;1.53;;;1.27;;
10727;SDS011;5415;59.322;18.246;2022-07-23T06:58:44;1.50;;;1.40;;
10727;SDS011;5415;59.322;18.246;2022-07-23T07:01:11;1.70;;;1.30;;
10727;SDS011;5415;59.322;18.246;2022-07-23T07:03:38;1.17;;;1.07;;
10727;SDS011;5415;59.322;18.246;2022-07-23T07:06:05;2.07;;;1.40;;
10727;SDS011;5415;59.322;18.246;2022-07-23T07:08:34;1.50;;;1.20;;
10727;SDS011;5415;59.322;18.246;2022-07-23T07:11:02;1.27;;;1.10;;
10727;SDS011;5415;59.322;18.246;2022-07-23T07:13:29;1.27;;;1.17;;
10727;SDS011;5415;59.322;18.246;2022-07-23T07:15:56;1.20;;;1.10;;
10727;SDS011;5415;59.322;18.246;2022-07-23T07:18:24;1.17;;;1.10;;
10727;SDS011;5415;59.322;18.246;2022-07-23T07:20:51;1.63;;;1.10;;
10727;SDS011;5415;59.322;18.246;2022-07-23T07:23:18;1.07;;;0.87;;
10727;SDS011;5415;59.322;18.246;2022-07-23T07:25:48;0.80;;;0.80;;
10727;SDS011;5415;59.322;18.246;2022-07-23T07:28:15;0.90;;;0.90;;
10727;SDS011;5415;59.322;18.246;2022-07-23T07:30:42;1.50;;;0.90;;
10727;SDS011;5415;59.322;18.246;2022-07-23T07:33:09;1.33;;;1.10;;
10727;SDS011;5415;59.322;18.246;2022-07-23T07:35:37;2.63;;;1.00;;
10727;SDS011;5415;59.322;18.246;2022-07-23T07:38:04;1.10;;;0.80;;
10727;SDS011;5415;59.322;18.246;2022-07-23T07:40:31;0.90;;;0.90;;
10727;SDS011;5415;59.322;18.246;2022-07-23T07:43:00;1.13;;;1.00;;
10727;SDS011;5415;59.322;18.246;2022-07-23T07:45:28;1.47;;;1.00;;
10727;SDS011;5415;59.322;18.246;2022-07-23T07:47:56;0.97;;;0.97;;
10727;SDS011;5415;59.322;18.246;2022-07-23T07:50:24;1.00;;;0.97;;
10727;SDS011;5415;59.322;18.246;2022-07-23T07:52:51;0.90;;;0.90;;
10727;SDS011;5415;59.322;18.246;2022-07-23T07:55:20;1.27;;;0.90;;
10727;SDS011;5415;59.322;18.246;2022-07-23T07:57:47;1.50;;;1.00;;
10727;SDS011;5415;59.322;18.246;2022-07-23T08:00:16;0.90;;;0.90;;
10727;SDS011;5415;59.322;18.246;2022-07-23T08:02:45;0.90;;;0.90;;
10727;SDS011;5415;59.322;18.246;2022-07-23T08:05:14;0.87;;;0.87;;
10727;SDS011;5415;59.322;18.246;2022-07-23T08:07:44;0.90;;;0.90;;
10727;SDS011;5415;59.322;18.246;2022-07-23T08:10:12;0.80;;;0.80;;
10727;SDS011;5415;59.322;18.246;2022-07-23T08:12:43;0.83;;;0.80;;
10727;SDS011;5415;59.322;18.246;2022-07-23T08:15:15;0.90;;;0.90;;
10727;SDS011;5415;59.322;18.246;2022-07-23T08:17:45;0.97;;;0.80;;
10727;SDS011;5415;59.322;18.246;2022-07-23T08:20:15;0.70;;;0.70;;
10727;SDS011;5415;59.322;18.246;2022-07-23T08:22:45;0.70;;;0.70;;
10727;SDS011;5415;59.322;18.246;2022-07-23T08:25:14;1.00;;;0.90;;
10727;SDS011;5415;59.322;18.246;2022-07-23T08:27:42;1.60;;;0.87;;
10727;SDS011;5415;59.322;18.246;2022-07-23T08:30:09;0.83;;;0.83;;
10727;SDS011;5415;59.322;18.246;2022-07-23T08:32:52;0.83;;;0.83;;
10727;SDS011;5415;59.322;18.246;2022-07-23T08:35:24;0.80;;;0.80;;
10727;SDS011;5415;59.322;18.246;2022-07-23T08:37:52;3.43;;;1.10;;
10727;SDS011;5415;59.322;18.246;2022-07-23T08:40:20;0.73;;;0.73;;
10727;SDS011;5415;59.322;18.246;2022-07-23T08:42:48;0.93;;;0.93;;
10727;SDS011;5415;59.322;18.246;2022-07-23T08:45:16;1.00;;;0.90;;
10727;SDS011;5415;59.322;18.246;2022-07-23T08:47:48;0.73;;;0.67;;
10727;SDS011;5415;59.322;18.246;2022-07-23T08:50:18;4.27;;;3.87;;
10727;SDS011;5415;59.322;18.246;2022-07-23T08:52:46;1.87;;;1.60;;
10727;SDS011;5415;59.322;18.246;2022-07-23T08:55:16;1.30;;;1.20;;
10727;SDS011;5415;59.322;18.246;2022-07-23T08:57:44;1.10;;;1.10;;
10727;SDS011;5415;59.322;18.246;2022-07-23T09:00:14;1.37;;;1.10;;
10727;SDS011;5415;59.322;18.246;2022-07-23T09:02:43;0.83;;;0.83;;
10727;SDS011;5415;59.322;18.246;2022-07-23T09:05:13;0.70;;;0.70;;
10727;SDS011;5415;59.322;18.246;2022-07-23T09:10:34;0.80;;;0.80;;
10727;SDS011;5415;59.322;18.246;2022-07-23T09:13:23;0.90;;;0.90;;
10727;SDS011;5415;59.322;18.246;2022-07-23T09:15:57;0.80;;;0.80;;
10727;SDS011;5415;59.322;18.246;2022-07-23T09:18:32;1.23;;;0.83;;
10727;SDS011;5415;59.322;18.246;2022-07-23T09:23:55;0.97;;;0.70;;
10727;SDS011;5415;59.322;18.246;2022-07-23T09:26:32;0.90;;;0.90;;
10727;SDS011;5415;59.322;18.246;2022-07-23T09:29:03;1.10;;;0.80;;
10727;SDS011;5415;59.322;18.246;2022-07-23T09:31:34;1.07;;;0.80;;
10727;SDS011;5415;59.322;18.246;2022-07-23T09:34:10;0.60;;;0.60;;
10727;SDS011;5415;59.322;18.246;2022-07-23T09:39:27;0.70;;;0.70;;
10727;SDS011;5415;59.322;18.246;2022-07-23T09:41:56;0.97;;;0.50;;
10727;SDS011;5415;59.322;18.246;2022-07-23T09:44:23;0.77;;;0.77;;
10727;SDS011;5415;59.322;18.246;2022-07-23T09:46:52;0.70;;;0.70;;
10727;SDS011;5415;59.322;18.246;2022-07-23T09:49:25;0.90;;;0.90;;
10727;SDS011;5415;59.322;18.246;2022-07-23T09:51:52;0.90;;;0.90;;
10727;SDS011;5415;59.322;18.246;2022-07-23T09:57:09;1.50;;;0.60;;
10727;SDS011;5415;59.322;18.246;2022-07-23T09:59:42;0.97;;;0.73;;
10727;SDS011;5415;59.322;18.246;2022-07-23T10:02:11;0.70;;;0.70;;
10727;SDS011;5415;59.322;18.246;2022-07-23T10:04:40;0.83;;;0.70;;
10727;SDS011;5415;59.322;18.246;2022-07-23T10:07:08;0.60;;;0.60;;
10727;SDS011;5415;59.322;18.246;2022-07-23T10:09:38;1.17;;;0.80;;
10727;SDS011;5415;59.322;18.246;2022-07-23T10:12:11;0.50;;;0.50;;
10727;SDS011;5415;59.322;18.246;2022-07-23T10:14:53;0.60;;;0.60;;
10727;SDS011;5415;59.322;18.246;2022-07-23T10:17:20;0.50;;;0.50;;
10727;SDS011;5415;59.322;18.246;2022-07-23T10:19:48;0.30;;;0.30;;
10727;SDS011;5415;59.322;18.246;2022-07-23T10:22:18;0.50;;;0.50;;
10727;SDS011;5415;59.322;18.246;2022-07-23T10:25:04;1.70;;;0.60;;
10727;SDS011;5415;59.322;18.246;2022-07-23T10:27:50;0.40;;;0.40;;
10727;SDS011;5415;59.322;18.246;2022-07-23T10:30:35;0.60;;;0.60;;
10727;SDS011;5415;59.322;18.246;2022-07-23T10:33:23;0.50;;;0.50;;
10727;SDS011;5415;59.322;18.246;2022-07-23T10:35:59;0.47;;;0.47;;
10727;SDS011;5415;59.322;18.246;2022-07-23T10:38:30;0.67;;;0.50;;
10727;SDS011;5415;59.322;18.246;2022-07-23T10:41:00;0.60;;;0.60;;
10727;SDS011;5415;59.322;18.246;2022-07-23T10:43:30;1.23;;;0.50;;
10727;SDS011;5415;59.322;18.246;2022-07-23T10:48:41;1.30;;;0.60;;
10727;SDS011;5415;59.322;18.246;2022-07-23T10:51:09;0.70;;;0.70;;
10727;SDS011;5415;59.322;18.246;2022-07-23T10:53:54;0.73;;;0.50;;
10727;SDS011;5415;59.322;18.246;2022-07-23T10:59:15;0.50;;;0.50;;
10727;SDS011;5415;59.322;18.246;2022-07-23T11:01:44;0.70;;;0.60;;
10727;SDS011;5415;59.322;18.246;2022-07-23T11:04:12;0.50;;;0.50;;
10727;SDS011;5415;59.322;18.246;2022-07-23T11:09:25;0.87;;;0.70;;
10727;SDS011;5415;59.322;18.246;2022-07-23T11:17:24;0.87;;;0.70;;
10727;SDS011;5415;59.322;18.246;2022-07-23T11:22:46;0.87;;;0.70;;
10727;SDS011;5415;59.322;18.246;2022-07-23T11:25:28;0.70;;;0.70;;
10727;SDS011;5415;59.322;18.246;2022-07-23T11:27:55;0.90;;;0.90;;
10727;SDS011;5415;59.322;18.246;2022-07-23T11:30:40;0.67;;;0.67;;
10727;SDS011;5415;59.322;18.246;2022-07-23T11:36:02;0.80;;;0.80;;
10727;SDS011;5415;59.322;18.246;2022-07-23T11:38:30;0.80;;;0.80;;
10727;SDS011;5415;59.322;18.246;2022-07-23T11:41:00;0.90;;;0.80;;
10727;SDS011;5415;59.322;18.246;2022-07-23T11:43:28;0.60;;;0.60;;
10727;SDS011;5415;59.322;18.246;2022-07-23T11:45:57;0.77;;;0.70;;
10727;SDS011;5415;59.322;18.246;2022-07-23T11:48:26;0.80;;;0.57;;
10727;SDS011;5415;59.322;18.246;2022-07-23T11:50:54;1.03;;;0.50;;
10727;SDS011;5415;59.322;18.246;2022-07-23T11:53:23;0.70;;;0.70;;
10727;SDS011;5415;59.322;18.246;2022-07-23T11:55:53;1.20;;;0.60;;
10727;SDS011;5415;59.322;18.246;2022-07-23T11:58:20;2.23;;;0.90;;
10727;SDS011;5415;59.322;18.246;2022-07-23T12:00:49;0.77;;;0.70;;
10727;SDS011;5415;59.322;18.246;2022-07-23T12:03:17;1.37;;;0.70;;
10727;SDS011;5415;59.322;18.246;2022-07-23T12:05:45;1.17;;;0.70;;
10727;SDS011;5415;59.322;18.246;2022-07-23T12:08:12;0.97;;;0.70;;
10727;SDS011;5415;59.322;18.246;2022-07-23T12:10:43;1.17;;;0.90;;
10727;SDS011;5415;59.322;18.246;2022-07-23T12:13:12;0.77;;;0.73;;
10727;SDS011;5415;59.322;18.246;2022-07-23T12:15:41;0.90;;;0.77;;
10727;SDS011;5415;59.322;18.246;2022-07-23T12:18:10;0.63;;;0.63;;
10727;SDS011;5415;59.322;18.246;2022-07-23T12:20:39;0.80;;;0.80;;
10727;SDS011;5415;59.322;18.246;2022-07-23T12:23:08;1.47;;;0.90;;
10727;SDS011;5415;59.322;18.246;2022-07-23T12:25:36;0.80;;;0.70;;
10727;SDS011;5415;59.322;18.246;2022-07-23T12:28:07;1.57;;;0.90;;
10727;SDS011;5415;59.322;18.246;2022-07-23T12:30:37;2.00;;;1.33;;
10727;SDS011;5415;59.322;18.246;2022-07-23T12:33:07;0.87;;;0.87;;
10727;SDS011;5415;59.322;18.246;2022-07-23T12:35:36;0.97;;;0.93;;
10727;SDS011;5415;59.322;18.246;2022-07-23T12:38:06;0.83;;;0.80;;
10727;SDS011;5415;59.322;18.246;2022-07-23T12:40:36;1.80;;;0.90;;
10727;SDS011;5415;59.322;18.246;2022-07-23T12:43:06;1.27;;;1.00;;
10727;SDS011;5415;59.322;18.246;2022-07-23T12:45:44;1.00;;;1.00;;
10727;SDS011;5415;59.322;18.246;2022-07-23T12:48:15;0.90;;;0.90;;
10727;SDS011;5415;59.322;18.246;2022-07-23T12:50:48;2.73;;;1.30;;
10727;SDS011;5415;59.322;18.246;2022-07-23T12:53:17;1.43;;;1.00;;
10727;SDS011;5415;59.322;18.246;2022-07-23T12:55:45;1.20;;;1.00;;
10727;SDS011;5415;59.322;18.246;2022-07-23T12:58:16;1.87;;;1.20;;
10727;SDS011;5415;59.322;18.246;2022-07-23T13:00:51;1.47;;;1.17;;
10727;SDS011;5415;59.322;18.246;2022-07-23T13:03:26;1.00;;;0.93;;
10727;SDS011;5415;59.322;18.246;2022-07-23T13:05:53;1.73;;;1.10;;
10727;SDS011;5415;59.322;18.246;2022-07-23T13:08:21;2.00;;;1.40;;
10727;SDS011;5415;59.322;18.246;2022-07-23T13:10:49;1.20;;;1.10;;
10727;SDS011;5415;59.322;18.246;2022-07-23T13:13:18;1.30;;;1.20;;
10727;SDS011;5415;59.322;18.246;2022-07-23T13:15:47;2.07;;;1.20;;
10727;SDS011;5415;59.322;18.246;2022-07-23T13:18:14;2.50;;;1.20;;
10727;SDS011;5415;59.322;18.246;2022-07-23T13:20:43;2.17;;;1.13;;
10727;SDS011;5415;59.322;18.246;2022-07-23T13:23:10;1.30;;;1.10;;
10727;SDS011;5415;59.322;18.246;2022-07-23T13:25:39;1.23;;;1.00;;
10727;SDS011;5415;59.322;18.246;2022-07-23T13:28:07;1.13;;;1.03;;
10727;SDS011;5415;59.322;18.246;2022-07-23T13:30:36;1.00;;;1.00;;
10727;SDS011;5415;59.322;18.246;2022-07-23T13:33:04;2.13;;;1.10;;
10727;SDS011;5415;59.322;18.246;2022-07-23T13:35:33;3.10;;;1.10;;
10727;SDS011;5415;59.322;18.246;2022-07-23T13:38:00;1.30;;;1.20;;
10727;SDS011;5415;59.322;18.246;2022-07-23T13:40:28;2.27;;;1.43;;
10727;SDS011;5415;59.322;18.246;2022-07-23T13:42:56;1.43;;;1.20;;
10727;SDS011;5415;59.322;18.246;2022-07-23T13:45:23;1.17;;;1.10;;
10727;SDS011;5415;59.322;18.246;2022-07-23T13:47:53;1.20;;;1.10;;
10727;SDS011;5415;59.322;18.246;2022-07-23T13:50:22;1.47;;;1.30;;
10727;SDS011;5415;59.322;18.246;2022-07-23T13:52:49;1.10;;;1.00;;
10727;SDS011;5415;59.322;18.246;2022-07-23T13:55:17;1.70;;;1.20;;
10727;SDS011;5415;59.322;18.246;2022-07-23T13:57:45;2.57;;;1.30;;
10727;SDS011;5415;59.322;18.246;2022-07-23T14:00:13;1.40;;;1.30;;
10727;SDS011;5415;59.322;18.246;2022-07-23T14:02:41;1.37;;;1.10;;
10727;SDS011;5415;59.322;18.246;2022-07-23T14:05:10;1.43;;;1.10;;
10727;SDS011;5415;59.322;18.246;2022-07-23T14:07:38;3.70;;;1.13;;
10727;SDS011;5415;59.322;18.246;2022-07-23T14:10:08;1.20;;;1.10;;
10727;SDS011;5415;59.322;18.246;2022-07-23T14:12:35;1.70;;;1.30;;
10727;SDS011;5415;59.322;18.246;2022-07-23T14:15:03;1.23;;;1.13;;
10727;SDS011;5415;59.322;18.246;2022-07-23T14:17:31;1.00;;;1.00;;
10727;SDS011;5415;59.322;18.246;2022-07-23T14:19:59;1.23;;;1.10;;
10727;SDS011;5415;59.322;18.246;2022-07-23T14:22:29;1.30;;;1.20;;
10727;SDS011;5415;59.322;18.246;2022-07-23T14:24:57;1.40;;;1.30;;
10727;SDS011;5415;59.322;18.246;2022-07-23T14:27:25;1.50;;;1.40;;
10727;SDS011;5415;59.322;18.246;2022-07-23T14:29:52;2.63;;;1.33;;
10727;SDS011;5415;59.322;18.246;2022-07-23T14:32:20;1.90;;;1.30;;
10727;SDS011;5415;59.322;18.246;2022-07-23T14:34:48;1.77;;;1.40;;
10727;SDS011;5415;59.322;18.246;2022-07-23T14:37:17;2.20;;;1.30;;
10727;SDS011;5415;59.322;18.246;2022-07-23T14:39:46;1.87;;;1.20;;
10727;SDS011;5415;59.322;18.246;2022-07-23T14:42:14;1.20;;;1.10;;
10727;SDS011;5415;59.322;18.246;2022-07-23T14:44:41;2.40;;;1.30;;
10727;SDS011;5415;59.322;18.246;2022-07-23T14:47:09;2.43;;;1.37;;
10727;SDS011;5415;59.322;18.246;2022-07-23T14:49:37;1.70;;;1.20;;
10727;SDS011;5415;59.322;18.246;2022-07-23T14:52:04;1.53;;;1.20;;
10727;SDS011;5415;59.322;18.246;2022-07-23T14:54:34;2.07;;;1.33;;
10727;SDS011;5415;59.322;18.246;2022-07-23T14:57:03;2.80;;;1.43;;
10727;SDS011;5415;59.322;18.246;2022-07-23T14:59:33;1.43;;;1.30;;
10727;SDS011;5415;59.322;18.246;2022-07-23T15:02:02;3.13;;;1.40;;
10727;SDS011;5415;59.322;18.246;2022-07-23T15:04:30;4.27;;;1.50;;
10727;SDS011;5415;59.322;18.246;2022-07-23T15:06:57;1.50;;;1.40;;
10727;SDS011;5415;59.322;18.246;2022-07-23T15:09:25;2.13;;;1.40;;
10727;SDS011;5415;59.322;18.246;2022-07-23T15:11:53;1.77;;;1.40;;
10727;SDS011;5415;59.322;18.246;2022-07-23T15:14:27;2.23;;;1.80;;
10727;SDS011;5415;59.322;18.246;2022-07-23T15:16:59;2.03;;;1.70;;
10727;SDS011;5415;59.322;18.246;2022-07-23T15:19:29;1.60;;;1.50;;
10727;SDS011;5415;59.322;18.246;2022-07-23T15:21:57;1.50;;;1.40;;
10727;SDS011;5415;59.322;18.246;2022-07-23T15:24:27;1.70;;;1.50;;